createdAt,value
2022-08-08T00:01:06.780Z,13.10
2022-08-08T00:03:53.237Z,13.10
2022-08-08T00:06:34.273Z,13.10
2022-08-08T00:09:02.039Z,13.10
2022-08-08T00:11:46.102Z,13.10
2022-08-08T00:14:57.251Z,13.00
2022-08-08T00:17:48.261Z,12.90
2022-08-08T00:20:46.574Z,12.90
2022-08-08T00:23:20.729Z,12.90
2022-08-08T00:25:51.135Z,12.90
2022-08-08T00:28:35.161Z,12.90
2022-08-08T00:32:20.396Z,12.90
2022-08-08T00:34:34.856Z,12.90
2022-08-08T00:37:45.199Z,12.90
2022-08-08T00:41:10.765Z,12.90
2022-08-08T00:43:19.263Z,12.90
2022-08-08T00:45:50.112Z,12.90
2022-08-08T00:48:35.734Z,12.90
2022-08-08T00:51:09.779Z,12.90
2022-08-08T00:54:04.023Z,13.00
2022-08-08T00:56:58.823Z,13.00
2022-08-08T00:59:46.664Z,13.00
2022-08-08T01:02:34.822Z,13.10
2022-08-08T01:05:06.665Z,13.10
2022-08-08T01:07:55.022Z,13.20
2022-08-08T01:10:23.752Z,13.10
2022-08-08T01:13:09.536Z,13.20
2022-08-08T01:16:04.574Z,13.10
2022-08-08T01:18:52.998Z,13.20
2022-08-08T01:21:35.103Z,13.20
2022-08-08T01:24:39.377Z,13.20
2022-08-08T01:27:33.178Z,13.20
2022-08-08T01:30:31.254Z,13.20
2022-08-08T01:33:24.301Z,13.20
2022-08-08T01:36:01.432Z,13.20
2022-08-08T01:38:46.942Z,13.20
2022-08-08T01:41:22.459Z,13.20
2022-08-08T01:44:09.851Z,13.20
2022-08-08T01:46:52.153Z,13.20
2022-08-08T01:49:37.208Z,13.20
2022-08-08T01:54:04.389Z,13.20
2022-08-08T01:56:04.616Z,13.20
2022-08-08T01:58:19.227Z,13.20
2022-08-08T02:01:15.766Z,13.20
2022-08-08T02:04:00.398Z,13.20
2022-08-08T02:06:40.868Z,13.10
2022-08-08T02:09:17.948Z,13.20
2022-08-08T02:11:58.984Z,13.20
2022-08-08T02:14:55.735Z,13.20
2022-08-08T02:17:43.032Z,13.20
2022-08-08T02:21:00.984Z,13.10
2022-08-08T02:23:32.160Z,13.10
2022-08-08T02:26:21.848Z,13.10
2022-08-08T02:29:07.543Z,13.10
2022-08-08T02:32:00.533Z,13.00
2022-08-08T02:35:07.908Z,13.10
2022-08-08T02:37:52.966Z,13.00
2022-08-08T02:40:42.033Z,13.10
2022-08-08T02:44:37.558Z,13.10
2022-08-08T02:46:20.746Z,13.10
2022-08-08T02:49:00.186Z,13.10
2022-08-08T02:51:30.532Z,13.00
2022-08-08T02:54:34.550Z,13.10
2022-08-08T02:57:21.640Z,13.10
2022-08-08T02:59:57.445Z,13.10
2022-08-08T03:02:31.659Z,13.20
2022-08-08T03:05:09.471Z,13.20
2022-08-08T03:07:59.099Z,13.30
2022-08-08T03:10:50.611Z,13.30
2022-08-08T03:15:53.618Z,13.40
2022-08-08T03:16:08.034Z,13.40
2022-08-08T03:18:39.242Z,13.50
2022-08-08T04:28:41.528Z,14.50
2022-08-08T04:31:09.304Z,14.60
2022-08-08T04:33:41.523Z,14.70
2022-08-08T04:36:08.965Z,14.80
2022-08-08T04:38:37.659Z,14.80
2022-08-08T04:41:09.321Z,14.80
2022-08-08T04:43:45.188Z,14.90
2022-08-08T04:46:14.955Z,15.00
2022-08-08T04:48:41.924Z,15.10
2022-08-08T04:51:09.417Z,15.20
2022-08-08T04:54:27.063Z,15.30
2022-08-08T04:56:23.217Z,15.40
2022-08-08T04:58:50.634Z,15.40
2022-08-08T05:01:18.068Z,15.50
2022-08-08T05:04:09.844Z,15.60
2022-08-08T05:06:31.923Z,15.70
2022-08-08T05:09:02.940Z,15.80
2022-08-08T05:11:39.692Z,15.90
2022-08-08T05:14:08.680Z,15.90
2022-08-08T05:16:50.812Z,16.00
2022-08-08T05:20:11.096Z,16.00
2022-08-08T05:22:13.561Z,16.00
2022-08-08T05:24:48.535Z,16.10
2022-08-08T05:27:15.948Z,16.20
2022-08-08T05:29:42.944Z,16.30
2022-08-08T05:32:09.978Z,16.40
2022-08-08T05:34:46.566Z,16.60
2022-08-08T05:37:18.634Z,16.70
2022-08-08T05:39:47.035Z,16.90
2022-08-08T05:42:15.281Z,17.10
2022-08-08T05:44:45.434Z,17.20
2022-08-08T05:47:14.213Z,17.40
2022-08-08T05:49:41.617Z,17.60
2022-08-08T05:52:31.767Z,17.90
2022-08-08T05:55:04.649Z,18.30
2022-08-08T05:58:04.427Z,18.70
2022-08-08T06:00:25.870Z,18.70
2022-08-08T06:03:17.567Z,18.70
2022-08-08T06:05:56.635Z,18.80
2022-08-08T06:08:34.717Z,18.90
2022-08-08T06:11:02.706Z,19.10
2022-08-08T06:13:36.045Z,19.30
2022-08-08T06:16:14.325Z,19.50
2022-08-08T06:18:41.955Z,19.60
2022-08-08T06:21:28.535Z,19.60
2022-08-08T06:24:02.537Z,19.60
2022-08-08T06:26:45.599Z,19.70
2022-08-08T06:29:59.575Z,19.70
2022-08-08T06:32:33.770Z,19.80
2022-08-08T06:35:30.735Z,20.10
2022-08-08T06:37:55.760Z,20.30
2022-08-08T06:40:26.786Z,20.50
2022-08-08T06:42:55.319Z,20.40
2022-08-08T06:45:23.306Z,20.40
2022-08-08T06:47:52.463Z,20.50
2022-08-08T06:50:32.429Z,20.50
2022-08-08T06:53:01.637Z,20.70
2022-08-08T06:55:41.614Z,20.90
2022-08-08T06:58:08.878Z,21.20
2022-08-08T07:00:40.730Z,21.30
2022-08-08T07:03:09.472Z,21.30
2022-08-08T07:06:02.306Z,21.30
2022-08-08T07:08:31.561Z,21.40
2022-08-08T07:10:59.619Z,21.40
2022-08-08T07:13:30.967Z,21.40
2022-08-08T07:16:07.093Z,21.40
2022-08-08T07:18:40.873Z,21.40
2022-08-08T07:21:18.592Z,21.40
2022-08-08T07:24:01.199Z,21.50
2022-08-08T07:26:35.504Z,21.60
2022-08-08T07:29:05.722Z,22.00
2022-08-08T07:31:36.483Z,22.60
2022-08-08T07:34:09.019Z,23.10
2022-08-08T07:36:48.325Z,23.30
2022-08-08T07:39:29.662Z,23.50
2022-08-08T07:42:04.073Z,23.80
2022-08-08T07:44:40.423Z,24.10
2022-08-08T07:47:08.830Z,24.10
2022-08-08T07:49:40.450Z,23.80
2022-08-08T07:52:13.156Z,23.50
2022-08-08T07:54:55.644Z,23.10
2022-08-08T07:57:38.481Z,22.70
2022-08-08T08:00:16.378Z,22.40
2022-08-08T08:02:44.881Z,22.40
2022-08-08T08:05:32.865Z,22.40
2022-08-08T08:08:04.174Z,22.50
2022-08-08T08:10:33.545Z,22.60
2022-08-08T08:13:25.555Z,22.70
2022-08-08T08:16:09.651Z,23.00
2022-08-08T08:18:52.241Z,22.90
2022-08-08T08:21:44.039Z,22.80
2022-08-08T08:24:12.797Z,22.80
2022-08-08T08:26:39.890Z,23.00
2022-08-08T08:29:19.716Z,23.00
2022-08-08T08:31:53.989Z,23.10
2022-08-08T08:34:32.252Z,23.10
2022-08-08T08:37:07.614Z,23.00
2022-08-08T08:39:59.554Z,23.00
2022-08-08T08:42:31.459Z,22.80
2022-08-08T08:45:10.143Z,22.60
2022-08-08T08:47:53.306Z,22.40
2022-08-08T08:50:31.798Z,22.40
2022-08-08T08:53:04.654Z,22.20
2022-08-08T08:55:49.449Z,22.00
2022-08-08T08:58:30.453Z,22.20
2022-08-08T09:01:08.376Z,22.30
2022-08-08T09:03:47.702Z,22.30
2022-08-08T09:06:26.723Z,22.40
2022-08-08T09:09:05.434Z,22.30
2022-08-08T09:11:47.519Z,22.20
2022-08-08T09:14:22.105Z,22.20
2022-08-08T09:16:53.535Z,22.20
2022-08-08T09:21:54.058Z,22.30
2022-08-08T09:22:08.166Z,22.30
2022-08-08T09:24:38.784Z,22.20
2022-08-08T09:27:14.831Z,22.20
2022-08-08T09:30:05.230Z,22.20
2022-08-08T09:32:32.166Z,22.10
2022-08-08T09:35:04.048Z,22.00
2022-08-08T09:38:00.850Z,21.90
2022-08-08T09:40:43.217Z,21.80
2022-08-08T09:44:04.803Z,21.50
2022-08-08T09:46:30.555Z,21.40
2022-08-08T09:49:18.010Z,21.20
2022-08-08T09:52:06.154Z,21.10
2022-08-08T09:54:37.716Z,20.90
2022-08-08T09:57:05.510Z,20.80
2022-08-08T10:00:02.452Z,20.70
2022-08-08T10:02:36.694Z,20.60
2022-08-08T10:05:07.202Z,20.50
2022-08-08T10:08:01.264Z,20.40
2022-08-08T10:10:31.407Z,20.40
2022-08-08T10:13:00.507Z,20.40
2022-08-08T10:15:42.353Z,20.50
2022-08-08T10:18:29.823Z,20.60
2022-08-08T10:21:08.459Z,20.70
2022-08-08T10:23:56.108Z,20.80
2022-08-08T10:26:58.796Z,21.00
2022-08-08T10:29:58.462Z,21.20
2022-08-08T10:32:38.962Z,21.20
2022-08-08T10:35:11.678Z,21.20
2022-08-08T10:38:08.207Z,21.10
2022-08-08T10:40:37.371Z,21.10
2022-08-08T10:43:05.928Z,21.00
2022-08-08T10:45:42.735Z,20.80
2022-08-08T10:48:31.161Z,20.70
2022-08-08T10:50:58.038Z,20.50
2022-08-08T10:53:56.683Z,20.40
2022-08-08T10:56:27.328Z,20.20
2022-08-08T10:58:59.334Z,20.20
2022-08-08T11:01:33.687Z,20.00
2022-08-08T11:04:02.615Z,19.90
2022-08-08T11:06:34.110Z,19.90
2022-08-08T11:09:02.619Z,20.00
2022-08-08T11:12:05.193Z,20.20
2022-08-08T11:14:27.837Z,20.40
2022-08-08T11:16:55.111Z,20.70
2022-08-08T11:19:25.025Z,20.90
2022-08-08T11:21:54.208Z,21.00
2022-08-08T11:24:25.420Z,21.20
2022-08-08T11:26:56.624Z,21.40
2022-08-08T11:29:41.782Z,21.60
2022-08-08T11:32:14.631Z,21.90
2022-08-08T11:35:09.640Z,22.00
2022-08-08T11:38:35.828Z,22.20
2022-08-08T11:40:22.587Z,22.20
2022-08-08T11:42:54.621Z,22.30
2022-08-08T11:45:22.735Z,22.30
2022-08-08T11:48:04.557Z,22.40
2022-08-08T11:50:33.916Z,22.40
2022-08-08T11:53:01.467Z,22.50
2022-08-08T11:55:36.617Z,22.50
2022-08-08T11:58:15.026Z,22.30
2022-08-08T12:00:45.473Z,22.20
2022-08-08T12:03:21.940Z,22.10
2022-08-08T12:05:49.366Z,22.00
2022-08-08T12:08:16.922Z,21.90
2022-08-08T12:10:48.498Z,21.80
2022-08-08T12:13:16.495Z,21.80
2022-08-08T12:15:49.310Z,21.90
2022-08-08T12:18:21.220Z,21.80
2022-08-08T12:20:49.643Z,21.80
2022-08-08T12:23:40.037Z,22.00
2022-08-08T12:26:27.924Z,22.10
2022-08-08T12:29:17.410Z,22.30
2022-08-08T12:31:54.266Z,22.20
2022-08-08T12:34:38.424Z,22.20
2022-08-08T12:37:08.319Z,22.10
2022-08-08T12:40:00.846Z,22.00
2022-08-08T12:42:22.923Z,21.90
2022-08-08T12:45:53.527Z,21.90
2022-08-08T12:48:10.373Z,22.10
2022-08-08T12:50:48.138Z,22.40
2022-08-08T12:53:23.788Z,22.60
2022-08-08T12:56:08.479Z,22.70
2022-08-08T12:58:49.745Z,22.50
2022-08-08T13:01:16.634Z,22.40
2022-08-08T13:03:51.855Z,22.30
2022-08-08T13:06:20.537Z,22.30
2022-08-08T13:08:53.724Z,22.30
2022-08-08T13:11:23.474Z,22.30
2022-08-08T13:13:51.439Z,22.30
2022-08-08T13:16:25.478Z,22.00
2022-08-08T13:18:57.315Z,22.00
2022-08-08T13:21:48.641Z,21.90
2022-08-08T13:24:19.081Z,21.80
2022-08-08T13:27:11.943Z,21.70
2022-08-08T13:29:50.350Z,21.70
2022-08-08T13:32:17.469Z,21.60
2022-08-08T13:35:11.950Z,21.50
2022-08-08T13:38:06.844Z,21.40
2022-08-08T13:40:35.235Z,21.60
2022-08-08T13:43:03.797Z,21.70
2022-08-08T13:45:31.626Z,21.60
2022-08-08T13:47:59.348Z,21.40
2022-08-08T13:50:42.643Z,21.30
2022-08-08T13:53:23.003Z,21.30
2022-08-08T13:56:02.253Z,21.50
2022-08-08T13:58:29.969Z,21.60
2022-08-08T14:00:57.035Z,21.60
2022-08-08T14:03:53.406Z,21.60
2022-08-08T14:06:33.527Z,21.40
2022-08-08T14:09:24.755Z,21.30
2022-08-08T14:11:48.521Z,21.10
2022-08-08T14:14:20.441Z,20.90
2022-08-08T14:16:48.980Z,20.70
2022-08-08T14:19:20.872Z,20.50
2022-08-08T14:21:59.240Z,20.30
2022-08-08T14:24:32.963Z,20.40
2022-08-08T14:27:01.643Z,20.50
2022-08-08T14:29:39.126Z,20.70
2022-08-08T14:32:14.361Z,21.00
2022-08-08T14:34:45.431Z,21.20
2022-08-08T14:37:16.647Z,21.60
2022-08-08T14:39:54.232Z,21.80
2022-08-08T14:42:55.290Z,21.90
2022-08-08T14:45:26.804Z,22.00
2022-08-08T14:48:02.796Z,22.00
2022-08-08T14:50:38.128Z,21.90
2022-08-08T14:53:07.018Z,21.80
2022-08-08T14:55:42.290Z,21.40
2022-08-08T14:58:12.083Z,21.20
2022-08-08T15:00:45.045Z,21.10
2022-08-08T15:03:15.781Z,21.00
2022-08-08T15:05:54.421Z,20.90
2022-08-08T15:08:34.495Z,20.90
2022-08-08T15:11:06.325Z,20.90
2022-08-08T15:13:35.158Z,21.10
2022-08-08T15:16:12.214Z,21.30
2022-08-08T15:18:44.077Z,21.30
2022-08-08T15:21:17.153Z,21.20
2022-08-08T15:23:44.115Z,21.10
2022-08-08T15:26:19.140Z,21.20
2022-08-08T15:28:46.007Z,21.20
2022-08-08T15:31:56.011Z,21.30
2022-08-08T15:34:07.229Z,21.20
2022-08-08T15:36:35.786Z,21.00
2022-08-08T15:39:04.081Z,20.80
2022-08-08T15:41:43.871Z,20.60
2022-08-08T15:44:13.906Z,20.50
2022-08-08T15:46:45.132Z,20.40
2022-08-08T15:49:12.737Z,20.30
2022-08-08T15:51:43.821Z,20.30
2022-08-08T15:54:18.596Z,20.30
2022-08-08T15:56:57.729Z,20.30
2022-08-08T16:00:05.501Z,20.30
2022-08-08T16:02:13.485Z,20.20
2022-08-08T16:04:43.304Z,20.20
2022-08-08T16:07:15.799Z,20.20
2022-08-08T16:13:03.455Z,20.10
2022-08-08T16:13:10.727Z,20.00
2022-08-08T16:15:16.509Z,19.90
2022-08-08T16:18:06.255Z,19.90
2022-08-08T16:20:30.250Z,19.90
2022-08-08T16:22:57.266Z,19.90
2022-08-08T16:25:24.370Z,19.90
2022-08-08T16:28:22.723Z,20.00
2022-08-08T16:30:58.043Z,20.00
2022-08-08T17:35:52.181Z,18.60
2022-08-08T17:37:51.630Z,18.60
2022-08-08T17:40:18.989Z,18.50
2022-08-08T17:42:47.144Z,18.40
2022-08-08T17:45:23.705Z,18.40
2022-08-08T17:47:51.323Z,18.30
2022-08-08T17:50:18.165Z,18.30
2022-08-08T17:52:47.705Z,18.20
2022-08-08T17:56:05.225Z,18.20
2022-08-08T17:58:02.169Z,18.10
2022-08-08T18:00:30.670Z,18.10
2022-08-08T18:03:07.533Z,18.00
2022-08-08T18:05:48.341Z,18.00
2022-08-08T18:08:25.258Z,17.90
2022-08-08T18:11:11.800Z,17.80
2022-08-08T18:13:42.555Z,17.70
2022-08-08T18:16:09.972Z,17.60
2022-08-08T18:18:43.018Z,17.50
2022-08-08T18:21:34.472Z,17.40
2022-08-08T18:24:04.911Z,17.30
2022-08-08T18:26:33.233Z,17.20
2022-08-08T18:29:00.608Z,17.10
2022-08-08T18:31:28.603Z,17.00
2022-08-08T18:34:25.146Z,17.00
2022-08-08T18:36:44.347Z,16.90
2022-08-08T18:39:16.377Z,16.90
2022-08-08T18:41:59.823Z,16.80
2022-08-08T18:44:30.360Z,16.80
2022-08-08T18:47:01.336Z,16.80
2022-08-08T18:49:40.646Z,16.70
2022-08-08T18:52:08.730Z,16.70
2022-08-08T18:54:45.676Z,16.70
2022-08-08T18:57:26.895Z,16.60
2022-08-08T18:59:53.819Z,16.60
2022-08-08T19:02:27.350Z,16.60
2022-08-08T19:04:56.208Z,16.60
2022-08-08T19:07:25.765Z,16.60
2022-08-08T19:10:14.153Z,16.60
2022-08-08T19:12:44.305Z,16.60
2022-08-08T19:15:11.941Z,16.60
2022-08-08T19:17:48.320Z,16.60
2022-08-08T19:20:29.909Z,16.60
2022-08-08T19:22:58.968Z,16.60
2022-08-08T19:26:01.701Z,16.60
2022-08-08T19:28:17.929Z,16.60
2022-08-08T19:30:51.250Z,16.60
2022-08-08T19:33:51.591Z,16.60
2022-08-08T19:36:17.930Z,16.60
2022-08-08T19:38:54.890Z,16.50
2022-08-08T19:41:21.754Z,16.60
2022-08-08T19:44:02.844Z,16.60
2022-08-08T19:46:33.144Z,16.60
2022-08-08T19:49:01.602Z,16.60
2022-08-08T19:51:34.568Z,16.50
2022-08-08T19:54:02.106Z,16.60
2022-08-08T19:56:39.786Z,16.50
2022-08-08T19:59:11.799Z,16.50
2022-08-08T20:02:00.962Z,16.50
2022-08-08T20:04:27.764Z,16.50
2022-08-08T20:06:56.909Z,16.50
2022-08-08T20:09:24.205Z,16.40
2022-08-08T20:11:52.161Z,16.40
2022-08-08T20:14:34.929Z,16.40
2022-08-08T20:17:04.032Z,16.30
2022-08-08T20:19:34.360Z,16.30
2022-08-08T20:22:13.281Z,16.30
2022-08-08T20:24:52.597Z,16.20
2022-08-08T20:27:21.232Z,16.20
2022-08-08T20:30:00.541Z,16.20
2022-08-08T20:32:28.696Z,16.20
2022-08-08T20:35:01.297Z,16.10
2022-08-08T20:37:52.769Z,16.10
2022-08-08T20:40:16.981Z,16.10
2022-08-08T20:42:54.049Z,16.10
2022-08-08T20:45:55.245Z,16.10
2022-08-08T20:48:09.641Z,16.10
2022-08-08T20:50:36.895Z,16.10
2022-08-08T20:53:04.196Z,16.00
2022-08-08T20:55:42.451Z,16.00
2022-08-08T20:58:14.075Z,16.00
2022-08-08T21:00:50.407Z,16.00
2022-08-08T21:03:17.413Z,15.90
2022-08-08T21:05:58.493Z,15.90
2022-08-08T21:08:36.719Z,15.90
2022-08-08T21:11:12.901Z,15.90
2022-08-08T21:13:40.774Z,15.90
2022-08-08T21:16:20.752Z,15.90
2022-08-08T21:18:57.404Z,15.80
2022-08-08T21:21:41.184Z,15.80
2022-08-08T21:24:18.150Z,15.80
2022-08-08T21:26:53.961Z,15.80
2022-08-08T21:29:21.729Z,15.80
2022-08-08T21:32:19.057Z,15.80
2022-08-08T21:34:56.851Z,15.80
2022-08-08T21:37:53.504Z,15.80
2022-08-08T21:40:31.234Z,15.70
2022-08-08T21:42:58.837Z,15.70
2022-08-08T21:48:01.328Z,15.70
2022-08-08T21:48:13.157Z,15.70
2022-08-08T21:50:46.433Z,15.70
2022-08-08T21:54:30.733Z,15.70
2022-08-08T21:56:24.550Z,15.70
2022-08-08T21:58:54.783Z,15.70
2022-08-08T22:01:28.059Z,15.70
2022-08-08T22:04:07.600Z,15.70
2022-08-08T22:06:38.032Z,15.60
2022-08-08T22:09:08.349Z,15.60
2022-08-08T22:12:02.873Z,15.60
2022-08-08T22:14:23.709Z,15.60
2022-08-08T22:16:54.018Z,15.60
2022-08-08T22:19:23.660Z,15.60
2022-08-08T22:21:54.252Z,15.60
2022-08-08T22:24:28.283Z,15.60
2022-08-08T22:27:01.857Z,15.60
2022-08-08T22:30:01.928Z,15.50
2022-08-08T22:32:18.858Z,15.50
2022-08-08T22:34:50.540Z,15.50
2022-08-08T22:37:48.590Z,15.50
2022-08-08T22:40:16.951Z,15.50
2022-08-08T22:42:45.658Z,15.50
2022-08-08T22:45:15.209Z,15.50
2022-08-08T22:47:48.751Z,15.50
2022-08-08T22:50:27.468Z,15.50
2022-08-08T22:54:29.320Z,15.50
2022-08-08T22:55:58.934Z,15.50
2022-08-08T22:58:33.062Z,15.40
2022-08-08T23:01:16.516Z,15.40
2022-08-08T23:03:54.329Z,15.40
2022-08-08T23:06:22.610Z,15.40
2022-08-08T23:08:55.209Z,15.40
2022-08-08T23:11:31.464Z,15.40
2022-08-08T23:14:11.855Z,15.30
2022-08-08T23:16:43.958Z,15.30
2022-08-08T23:19:11.900Z,15.30
2022-08-08T23:21:39.060Z,15.30
2022-08-08T23:24:06.593Z,15.30
2022-08-08T23:26:34.207Z,15.30
2022-08-08T23:29:01.952Z,15.30
2022-08-08T23:31:28.826Z,15.30
2022-08-08T23:34:16.538Z,15.30
2022-08-08T23:36:42.537Z,15.30
2022-08-08T23:39:09.589Z,15.30
2022-08-08T23:41:45.688Z,15.30
2022-08-08T23:44:13.631Z,15.30
2022-08-08T23:48:59.629Z,15.30
2022-08-08T23:49:27.612Z,15.30
2022-08-08T23:52:04.633Z,15.30
2022-08-08T23:54:41.192Z,15.30
2022-08-08T23:57:26.718Z,15.30
